Time;durP1;ratioP1;P1;durP2;ratioP2;P2;SDS_P1;SDS_P2;PMS_P1;PMS_P2;Temp;Humidity;BMP_temperature;BMP_pressure;BME280_temperature;BME280_humidity;BME280_pressure;Samples;Min_cycle;Max_cycle;Signal;HPM_P1;HPM_P2
2022/08/23 00:01:10;;;;;;;0.20;0.20;;;;;;;21.39;59.55;101462.09;5080966;28;20439;-77
2022/08/23 00:03:36;;;;;;;0.20;0.20;;;;;;;21.38;59.07;101458.50;5088627;28;20396;-77
2022/08/23 00:06:02;;;;;;;0.03;0.03;;;;;;;21.39;59.50;101462.09;5075781;28;20039;-78
2022/08/23 00:08:32;;;;;;;0.10;0.10;;;;;;;21.42;59.33;101461.91;5083916;28;20130;-77
2022/08/23 00:10:58;;;;;;;0.10;0.10;;;;;;;21.45;59.52;101459.91;5090392;28;20489;-77
2022/08/23 00:13:24;;;;;;;0.47;0.47;;;;;;;21.48;59.40;101457.03;5085916;28;20039;-77
2022/08/23 00:15:51;;;;;;;0.10;0.10;;;;;;;21.52;59.82;101452.34;5087354;28;20028;-77
2022/08/23 00:18:19;;;;;;;0.10;0.10;;;;;;;21.55;59.35;101460.25;5091118;28;20177;-77
2022/08/23 00:20:46;;;;;;;0.20;0.20;;;;;;;21.59;59.45;101455.59;5086548;28;20034;-76
2022/08/23 00:23:13;;;;;;;0.10;0.10;;;;;;;21.62;59.20;101453.59;5081246;28;20374;-77
2022/08/23 00:25:40;;;;;;;0.10;0.10;;;;;;;21.68;59.92;101454.19;5089776;28;20060;-76
2022/08/23 00:28:07;;;;;;;1.25;0.80;;;;;;;21.73;59.53;101460.19;5080155;28;20067;-77
2022/08/23 00:30:33;;;;;;;0.15;0.15;;;;;;;21.73;59.84;101450.28;5088860;28;20016;-77
2022/08/23 00:32:59;;;;;;;0.10;0.10;;;;;;;21.75;59.15;101452.91;5084758;28;20028;-76
2022/08/23 00:35:26;;;;;;;0.35;0.35;;;;;;;21.72;58.54;101471.94;5085156;28;20029;-77
2022/08/23 00:37:53;;;;;;;0.10;0.10;;;;;;;21.69;58.22;101470.28;5085685;28;20432;-78
2022/08/23 00:40:19;;;;;;;0.00;0.00;;;;;;;21.71;57.84;101475.59;5088217;28;20093;-78
2022/08/23 00:48:51;;;;;;;0.52;0.43;;;;;;;21.71;57.43;101489.06;5087873;28;20028;-77
2022/08/23 00:51:24;;;;;;;0.85;0.63;;;;;;;21.74;57.11;101486.22;5084451;28;20042;-77
2022/08/23 00:53:54;;;;;;;0.20;0.20;;;;;;;21.78;57.30;101490.47;5090481;28;20035;-78
2022/08/23 00:56:24;;;;;;;0.88;0.45;;;;;;;21.76;56.91;101489.69;5078372;28;20028;-77
2022/08/23 00:58:50;;;;;;;0.47;0.20;;;;;;;21.76;56.58;101487.00;5091408;28;20062;-78
2022/08/23 01:01:17;;;;;;;0.10;0.10;;;;;;;21.79;56.55;101492.22;5091116;28;20611;-78
2022/08/23 01:03:49;;;;;;;0.10;0.10;;;;;;;21.81;56.29;101485.75;5084361;28;20513;-78
2022/08/23 01:06:18;;;;;;;;;;;;;;;21.97;56.31;101480.34;5084972;28;20032;-78
2022/08/23 01:08:51;;;;;;;0.10;0.10;;;;;;;21.87;56.08;101483.66;5084019;28;19923;-76
2022/08/23 01:11:32;;;;;;;0.55;0.55;;;;;;;21.87;55.79;101479.16;5073265;28;20029;-76
2022/08/23 01:14:12;;;;;;;0.10;0.10;;;;;;;21.91;55.88;101488.81;5087214;28;20028;-78
2022/08/23 01:16:45;;;;;;;0.10;0.10;;;;;;;21.95;55.96;101482.28;5082179;28;20030;-78
2022/08/23 01:19:22;;;;;;;0.20;0.20;;;;;;;21.96;56.20;101483.16;5086851;28;20040;-78
2022/08/23 01:21:56;;;;;;;0.10;0.10;;;;;;;21.92;56.46;101479.75;5084224;28;20497;-77
2022/08/23 01:24:23;;;;;;;0.10;0.10;;;;;;;21.88;56.67;101486.31;5091324;28;20127;-78
2022/08/23 01:26:49;;;;;;;0.10;0.10;;;;;;;21.84;56.92;101484.72;5083267;28;20087;-77
2022/08/23 01:29:16;;;;;;;0.10;0.10;;;;;;;21.81;57.07;101482.22;5079967;28;20047;-77
2022/08/23 01:31:42;;;;;;;0.00;0.00;;;;;;;21.80;57.15;101483.16;5084648;28;20035;-77
2022/08/23 01:34:12;;;;;;;0.03;0.03;;;;;;;21.79;57.47;101481.41;5087534;28;20031;-77
2022/08/23 01:36:42;;;;;;;0.10;0.10;;;;;;;21.75;57.61;101475.31;5083410;28;20032;-76
2022/08/23 01:39:08;;;;;;;1.60;0.57;;;;;;;21.72;57.36;101480.03;5079510;28;20546;-77
2022/08/23 01:41:37;;;;;;;0.10;0.10;;;;;;;21.68;58.03;101478.47;5089645;28;20032;-77
2022/08/23 01:44:05;;;;;;;0.08;0.08;;;;;;;21.65;57.98;101477.69;5090458;28;20059;-77
2022/08/23 01:46:31;;;;;;;0.00;0.00;;;;;;;21.62;58.02;101467.06;5086585;28;20082;-76
2022/08/23 01:48:58;;;;;;;0.00;0.00;;;;;;;21.61;57.83;101468.03;5086231;28;20386;-77
2022/08/23 01:51:24;;;;;;;0.10;0.10;;;;;;;21.61;57.97;101473.41;5080330;28;20481;-77
2022/08/23 01:53:50;;;;;;;0.10;0.10;;;;;;;21.61;58.11;101472.56;5086881;28;20116;-78
2022/08/23 01:56:20;;;;;;;0.47;0.47;;;;;;;21.61;58.43;101473.41;5085624;28;20044;-77
2022/08/23 01:58:47;;;;;;;0.00;0.00;;;;;;;21.60;58.58;101462.72;5079058;28;20033;-77
2022/08/23 02:01:14;;;;;;;0.10;0.10;;;;;;;21.63;58.41;101466.13;5087780;28;20032;-77
2022/08/23 02:03:40;;;;;;;0.10;0.10;;;;;;;21.63;58.69;101467.94;5083980;28;20122;-77
2022/08/23 02:06:07;;;;;;;0.10;0.10;;;;;;;21.67;58.37;101466.81;5084850;28;20039;-77
2022/08/23 02:09:04;;;;;;;0.10;0.10;;;;;;;21.68;58.60;101470.38;5085862;28;20028;-77
2022/08/23 02:11:22;;;;;;;3.72;0.85;;;;;;;21.72;58.49;101474.63;5081445;28;20504;-77
2022/08/23 02:13:50;;;;;;;0.13;0.13;;;;;;;21.79;58.68;101470.63;5084558;28;20560;-77
2022/08/23 02:16:27;;;;;;;0.10;0.10;;;;;;;21.87;58.19;101476.47;5086819;28;20024;-77
2022/08/23 02:18:55;;;;;;;0.10;0.10;;;;;;;21.84;58.15;101468.53;5088133;28;20043;-77
2022/08/23 02:21:21;;;;;;;0.00;0.00;;;;;;;21.86;58.14;101474.72;5087989;28;20513;-77
2022/08/23 02:23:50;;;;;;;0.30;0.30;;;;;;;21.86;58.27;101468.44;5080147;28;20169;-76
2022/08/23 02:26:17;;;;;;;0.40;0.40;;;;;;;21.87;58.02;101468.38;5082000;28;20036;-77
2022/08/23 02:28:43;;;;;;;0.10;0.10;;;;;;;21.90;58.27;101478.97;5084829;28;20028;-77
2022/08/23 02:31:10;;;;;;;0.00;0.00;;;;;;;21.93;58.35;101488.72;5078996;28;20115;-77
2022/08/23 02:33:36;;;;;;;0.10;0.10;;;;;;;21.95;58.49;101481.41;5077176;28;20020;-77
2022/08/23 02:36:03;;;;;;;0.32;0.32;;;;;;;22.00;58.23;101475.75;5084455;28;20055;-77
2022/08/23 02:38:32;;;;;;;0.20;0.20;;;;;;;22.02;58.18;101482.81;5086670;28;20036;-77
2022/08/23 02:40:58;;;;;;;0.10;0.10;;;;;;;22.03;58.22;101478.25;5082767;28;20036;-77
2022/08/23 02:43:24;;;;;;;0.10;0.10;;;;;;;22.07;58.04;101490.59;5081190;28;20038;-76
2022/08/23 02:45:51;;;;;;;0.00;0.00;;;;;;;22.10;57.95;101480.50;5081852;28;20062;-76
2022/08/23 02:48:17;;;;;;;0.10;0.10;;;;;;;22.13;58.11;101487.53;5090019;28;20027;-78
2022/08/23 02:50:43;;;;;;;0.10;0.10;;;;;;;22.15;58.13;101488.34;5080648;28;20036;-77
2022/08/23 02:53:09;;;;;;;0.10;0.10;;;;;;;22.17;57.79;101486.44;5086550;28;20027;-78
2022/08/23 02:55:36;;;;;;;0.10;0.10;;;;;;;22.21;57.91;101487.13;5089559;28;20032;-78
2022/08/23 02:58:04;;;;;;;0.17;0.17;;;;;;;22.20;57.68;101491.63;5085599;28;20036;-78
2022/08/23 03:00:33;;;;;;;0.10;0.10;;;;;;;22.24;57.54;101486.94;5085141;28;20032;-78
2022/08/23 03:02:59;;;;;;;0.00;0.00;;;;;;;22.24;57.48;101485.13;5087667;28;20036;-77
2022/08/23 03:05:26;;;;;;;0.00;0.00;;;;;;;22.26;57.53;101483.16;5083624;28;20028;-78
2022/08/23 03:07:52;;;;;;;0.10;0.10;;;;;;;22.28;57.64;101483.97;5089542;28;20412;-78
2022/08/23 03:10:18;;;;;;;0.10;0.10;;;;;;;22.31;57.48;101485.59;5078771;28;20028;-77
2022/08/23 03:12:44;;;;;;;0.10;0.10;;;;;;;22.33;57.70;101482.81;5084561;28;20028;-78
2022/08/23 03:15:11;;;;;;;0.30;0.30;;;;;;;22.34;57.79;101490.81;5088610;28;20024;-77
2022/08/23 03:17:37;;;;;;;0.10;0.10;;;;;;;22.36;57.59;101488.91;5088421;28;20039;-77
2022/08/23 03:20:04;;;;;;;0.10;0.10;;;;;;;22.37;57.78;101489.75;5090231;28;20028;-76
2022/08/23 03:22:31;;;;;;;0.20;0.20;;;;;;;22.37;57.73;101487.06;5087664;28;20161;-77
2022/08/23 03:24:57;;;;;;;0.10;0.10;;;;;;;22.38;57.68;101494.22;5086540;28;20028;-77
2022/08/23 03:27:23;;;;;;;0.15;0.15;;;;;;;22.40;57.76;101487.78;5085339;28;20097;-76
2022/08/23 03:29:49;;;;;;;0.10;0.10;;;;;;;22.41;57.92;101488.66;5090561;28;20449;-76
2022/08/23 03:32:15;;;;;;;0.30;0.30;;;;;;;22.41;57.97;101488.66;5086954;28;20658;-75
2022/08/23 03:34:41;;;;;;;2.08;0.43;;;;;;;22.41;57.96;101489.53;5087911;28;20020;-76
2022/08/23 03:37:07;;;;;;;0.10;0.10;;;;;;;22.44;57.77;101488.47;5088485;28;20028;-76
2022/08/23 03:39:33;;;;;;;0.10;0.10;;;;;;;22.45;58.14;101484.81;5087022;28;20532;-77
2022/08/23 03:41:59;;;;;;;0.10;0.10;;;;;;;22.47;58.10;101488.31;5087796;28;20170;-77
2022/08/23 03:44:25;;;;;;;0.10;0.10;;;;;;;22.47;58.39;101482.91;5083731;28;20490;-75
2022/08/23 03:46:52;;;;;;;0.00;0.00;;;;;;;22.48;58.47;101486.44;5085795;28;20124;-76
2022/08/23 03:49:18;;;;;;;1.00;0.68;;;;;;;22.48;58.42;101481.94;5087782;28;20493;-76
2022/08/23 03:51:44;;;;;;;0.50;0.50;;;;;;;22.49;58.77;101491.75;5084745;28;20166;-77
2022/08/23 03:54:10;;;;;;;0.10;0.10;;;;;;;22.47;59.24;101488.31;5088045;28;20024;-76
2022/08/23 03:56:48;;;;;;;0.10;0.10;;;;;;;22.48;58.44;101490.03;5082425;28;20124;-77
2022/08/23 03:59:14;;;;;;;0.20;0.20;;;;;;;22.44;57.99;101492.06;5091261;28;20543;-77
2022/08/23 04:01:40;;;;;;;0.20;0.20;;;;;;;22.41;58.16;101494.06;5084997;28;20044;-77
2022/08/23 04:04:06;;;;;;;0.10;0.10;;;;;;;22.39;58.03;101486.06;5080606;28;20485;-77
2022/08/23 04:06:33;;;;;;;0.10;0.10;;;;;;;22.37;58.23;101487.97;5088888;28;20540;-77
2022/08/23 04:09:02;;;;;;;0.20;0.20;;;;;;;22.34;58.37;101482.72;5086798;28;20028;-77
2022/08/23 04:11:28;;;;;;;0.10;0.10;;;;;;;22.34;58.67;101488.09;5085869;28;20036;-76
2022/08/23 04:13:54;;;;;;;0.20;0.20;;;;;;;22.33;58.76;101490.91;5086511;28;20499;-77
2022/08/23 04:16:21;;;;;;;0.00;0.00;;;;;;;22.30;58.94;101495.50;5085065;28;20371;-77
2022/08/23 04:18:47;;;;;;;0.10;0.10;;;;;;;22.30;58.79;101495.50;5082852;28;20024;-77
2022/08/23 04:21:17;;;;;;;2.08;0.40;;;;;;;22.31;58.79;101499.09;5085398;28;20164;-77
2022/08/23 04:23:44;;;;;;;0.10;0.10;;;;;;;22.28;58.83;101494.75;5086853;28;20505;-75
2022/08/23 04:26:10;;;;;;;0.20;0.20;;;;;;;22.28;58.74;101497.47;5086077;28;20043;-76
2022/08/23 04:28:37;;;;;;;0.10;0.10;;;;;;;22.29;58.79;101499.19;5078904;28;20066;-76
2022/08/23 04:31:03;;;;;;;0.30;0.30;;;;;;;22.29;59.06;101501.91;5076797;28;20035;-77
2022/08/23 04:33:31;;;;;;;0.10;0.10;;;;;;;22.30;59.02;101503.63;5083241;28;20032;-77
2022/08/23 04:35:59;;;;;;;0.30;0.30;;;;;;;22.29;59.10;101501.00;5088949;28;20036;-77
2022/08/23 04:38:25;;;;;;;0.00;0.00;;;;;;;22.27;59.20;101497.56;5087486;28;20110;-76
2022/08/23 04:43:39;;;;;;;0.20;0.20;;;;;;;22.18;59.28;101501.66;5081685;28;20036;-77
2022/08/23 04:46:05;;;;;;;0.20;0.20;;;;;;;22.13;59.35;101501.03;5079559;28;20058;-76
2022/08/23 04:48:32;;;;;;;0.10;0.10;;;;;;;22.08;59.48;101500.44;5086664;28;20126;-75
2022/08/23 04:50:58;;;;;;;0.22;0.22;;;;;;;22.03;59.73;101506.13;5078384;28;20044;-77
2022/08/23 04:53:24;;;;;;;0.10;0.10;;;;;;;21.98;59.65;101509.09;5085362;28;20078;-77
2022/08/23 04:55:51;;;;;;;0.10;0.10;;;;;;;21.95;59.71;101509.25;5084374;28;20056;-77
2022/08/23 04:58:17;;;;;;;0.30;0.30;;;;;;;21.92;59.71;101505.84;5080078;28;20043;-76
2022/08/23 05:00:44;;;;;;;0.43;0.32;;;;;;;21.89;59.89;101506.91;5084987;28;20033;-76
2022/08/23 05:03:10;;;;;;;0.63;0.63;;;;;;;21.89;59.95;101514.13;5089097;28;20401;-76
2022/08/23 05:05:37;;;;;;;0.35;0.35;;;;;;;21.90;59.88;101515.88;5083908;28;20024;-77
2022/08/23 05:08:03;;;;;;;0.20;0.20;;;;;;;21.91;60.07;101518.47;5078438;28;20101;-77
2022/08/23 05:10:29;;;;;;;0.10;0.10;;;;;;;21.94;60.27;101534.50;5085790;28;20408;-76
2022/08/23 05:12:55;;;;;;;0.08;0.08;;;;;;;21.99;60.38;101531.53;5079415;28;20074;-76
2022/08/23 05:15:22;;;;;;;0.10;0.10;;;;;;;22.05;60.25;101535.72;5076652;28;20039;-77
2022/08/23 05:17:48;;;;;;;0.45;0.45;;;;;;;22.10;60.08;101533.63;5080674;28;20497;-77
2022/08/23 05:20:14;;;;;;;0.13;0.13;;;;;;;22.16;60.22;101535.97;5086652;28;20424;-76
2022/08/23 05:22:41;;;;;;;0.05;0.05;;;;;;;22.22;60.37;101541.00;5077717;28;20152;-76
2022/08/23 05:25:08;;;;;;;0.10;0.10;;;;;;;22.26;60.25;101533.59;5082394;28;20063;-77
2022/08/23 05:27:34;;;;;;;0.20;0.20;;;;;;;22.28;60.06;101535.25;5085158;28;20505;-77
2022/08/23 05:30:01;;;;;;;0.20;0.20;;;;;;;22.32;59.99;101533.25;5088094;28;20107;-77
2022/08/23 05:32:27;;;;;;;0.00;0.00;;;;;;;22.35;59.83;101532.19;5085332;28;20374;-77
2022/08/23 05:34:54;;;;;;;0.63;0.63;;;;;;;22.37;59.76;101538.34;5084294;28;20113;-75
2022/08/23 05:37:20;;;;;;;0.10;0.10;;;;;;;22.39;59.75;101531.97;5083956;28;20038;-77
2022/08/23 05:39:46;;;;;;;0.10;0.10;;;;;;;22.42;59.73;101547.09;5082688;28;20028;-77
2022/08/23 05:42:15;;;;;;;0.10;0.10;;;;;;;22.45;59.55;101544.22;5085952;28;20039;-77
2022/08/23 05:44:42;;;;;;;0.10;0.10;;;;;;;22.46;59.45;101559.47;5083965;28;20028;-77
2022/08/23 05:47:10;;;;;;;0.05;0.05;;;;;;;22.51;59.55;101551.09;5082924;28;20040;-77
2022/08/23 05:49:37;;;;;;;0.10;0.10;;;;;;;22.52;59.75;101551.00;5079839;28;20024;-76
2022/08/23 05:52:05;;;;;;;0.10;0.10;;;;;;;22.54;59.59;101549.09;5078138;28;20039;-76
2022/08/23 05:54:32;;;;;;;0.10;0.10;;;;;;;22.56;59.46;101549.84;5085269;28;20028;-77
2022/08/23 05:56:58;;;;;;;0.10;0.10;;;;;;;22.55;59.18;101540.00;5081641;28;20032;-77
2022/08/23 05:59:24;;;;;;;0.20;0.20;;;;;;;22.55;59.09;101547.25;5083943;28;20530;-76
2022/08/23 06:01:50;;;;;;;0.20;0.20;;;;;;;22.52;59.03;101542.91;5081912;28;20042;-77
2022/08/23 06:04:16;;;;;;;0.20;0.20;;;;;;;22.49;59.00;101550.31;5078181;28;20028;-76
2022/08/23 06:06:43;;;;;;;0.22;0.22;;;;;;;22.44;59.08;101545.16;5086097;28;20035;-76
2022/08/23 06:09:13;;;;;;;0.15;0.15;;;;;;;22.42;59.14;101555.22;5082934;28;20458;-77
2022/08/23 06:11:43;;;;;;;0.38;0.38;;;;;;;22.37;59.33;101557.25;5079089;28;20401;-77
2022/08/23 06:14:10;;;;;;;0.10;0.10;;;;;;;22.34;59.48;101552.91;5083988;28;20025;-77
2022/08/23 06:16:40;;;;;;;0.10;0.10;;;;;;;22.34;59.34;101557.44;5081116;28;20085;-79
2022/08/23 06:19:08;;;;;;;0.10;0.10;;;;;;;22.30;59.50;101557.59;5083584;28;20025;-81
2022/08/23 06:21:35;;;;;;;0.50;0.50;;;;;;;22.29;59.55;101549.59;5084732;28;20028;-81
2022/08/23 06:24:02;;;;;;;0.30;0.30;;;;;;;22.28;59.56;101559.53;5088849;28;20047;-79
2022/08/23 06:26:39;;;;;;;0.10;0.10;;;;;;;22.34;59.57;101562.84;5093466;28;20046;-81
2022/08/23 06:29:08;;;;;;;0.10;0.10;;;;;;;22.36;59.47;101558.22;5102918;28;20054;-80
2022/08/23 06:31:53;;;;;;;0.30;0.30;;;;;;;22.40;59.31;101562.50;5096810;28;20089;-81
2022/08/23 06:34:23;;;;;;;0.10;0.10;;;;;;;22.48;59.23;101568.34;5091677;28;20086;-82
2022/08/23 06:36:53;;;;;;;0.10;0.10;;;;;;;22.54;58.68;101565.28;5088914;28;20407;-82
2022/08/23 06:39:22;;;;;;;0.20;0.20;;;;;;;22.60;58.30;101564.91;5089536;28;20500;-82
2022/08/23 06:41:49;;;;;;;0.43;0.43;;;;;;;22.68;58.05;101568.97;5095678;28;20036;-82
2022/08/23 06:44:17;;;;;;;0.10;0.10;;;;;;;22.77;57.77;101563.03;5096207;28;20056;-82
2022/08/23 06:46:44;;;;;;;0.38;0.38;;;;;;;22.85;57.34;101560.72;5091826;28;20025;-82
2022/08/23 06:49:11;;;;;;;0.77;0.77;;;;;;;22.94;57.24;101568.28;5093636;28;20448;-83
2022/08/23 06:51:42;;;;;;;0.10;0.10;;;;;;;23.06;57.30;101576.59;5102453;28;20487;-82
2022/08/23 06:54:11;;;;;;;0.22;0.22;;;;;;;23.12;57.20;101565.41;5099122;28;20078;-81
2022/08/23 06:56:39;;;;;;;0.10;0.10;;;;;;;23.21;57.31;101564.88;5095806;28;20074;-81
2022/08/23 06:59:06;;;;;;;0.10;0.10;;;;;;;23.33;56.93;101567.75;5090527;28;20119;-82
2022/08/23 07:04:10;;;;;;;0.60;0.45;;;;;;;23.50;56.77;101564.91;5056526;28;20427;-80
2022/08/23 07:06:37;;;;;;;0.10;0.10;;;;;;;23.59;56.39;101572.41;5047146;28;20021;-79
2022/08/23 07:09:04;;;;;;;0.10;0.10;;;;;;;23.69;56.04;101571.81;5050915;28;20037;-80
2022/08/23 07:11:31;;;;;;;0.10;0.10;;;;;;;23.78;56.08;101570.38;5042750;28;20092;-79
2022/08/23 07:14:01;;;;;;;0.45;0.20;;;;;;;23.86;55.55;101577.03;5040863;28;20017;-80
2022/08/23 07:16:38;;;;;;;0.15;0.15;;;;;;;23.97;54.71;101578.19;5053528;28;20025;-80
2022/08/23 07:19:05;;;;;;;0.15;0.15;;;;;;;24.00;55.22;101578.88;5053481;28;20021;-80
2022/08/23 07:21:32;;;;;;;0.10;0.10;;;;;;;24.05;54.75;101587.56;5051892;28;20172;-80
2022/08/23 07:23:58;;;;;;;0.10;0.10;;;;;;;24.14;54.76;101575.25;5052041;28;20024;-80
2022/08/23 07:26:25;;;;;;;0.10;0.10;;;;;;;24.23;54.77;101579.19;5052510;28;20040;-80
2022/08/23 07:28:51;;;;;;;0.00;0.00;;;;;;;24.31;54.41;101584.09;5052854;28;20108;-79
2022/08/23 07:31:21;;;;;;;0.10;0.10;;;;;;;24.37;54.04;101583.69;5051354;28;20033;-79
2022/08/23 07:33:47;;;;;;;0.20;0.20;;;;;;;24.44;54.01;101587.72;5052486;28;20025;-79
2022/08/23 07:36:16;;;;;;;0.35;0.35;;;;;;;24.53;53.78;101589.78;5053138;28;20033;-80
2022/08/23 07:38:43;;;;;;;0.20;0.20;;;;;;;24.62;53.87;101587.44;5051179;28;20017;-79
2022/08/23 07:41:10;;;;;;;0.15;0.15;;;;;;;24.70;53.46;101590.53;5050529;28;20021;-80
2022/08/23 07:43:38;;;;;;;0.10;0.10;;;;;;;24.75;52.08;101587.50;5049190;28;20023;-80
2022/08/23 07:46:04;;;;;;;0.20;0.20;;;;;;;24.86;52.92;101591.22;5051564;28;20044;-81
2022/08/23 07:48:32;;;;;;;0.10;0.10;;;;;;;24.90;51.46;101588.28;5052035;28;20033;-81
2022/08/23 07:51:01;;;;;;;0.10;0.10;;;;;;;25.03;51.96;101586.47;5050234;28;20044;-81
2022/08/23 07:53:28;;;;;;;0.20;0.20;;;;;;;25.11;52.25;101594.94;5051110;28;20148;-83
2022/08/23 07:55:55;;;;;;;0.28;0.28;;;;;;;25.19;52.08;101588.97;5049327;28;20033;-81
2022/08/23 07:58:23;;;;;;;0.20;0.20;;;;;;;25.28;52.09;101587.47;5051927;28;20060;-81
2022/08/23 08:00:50;;;;;;;0.35;0.35;;;;;;;25.34;51.13;101587.03;5051179;28;20397;-81
2022/08/23 08:03:17;;;;;;;0.50;0.50;;;;;;;25.42;50.87;101590.09;5052053;28;20021;-81
2022/08/23 08:05:44;;;;;;;0.30;0.30;;;;;;;25.51;50.96;101600.28;5051520;28;20033;-81
2022/08/23 08:08:11;;;;;;;0.80;0.80;;;;;;;25.61;51.44;101594.19;5051768;28;20079;-83
2022/08/23 08:10:40;;;;;;;0.10;0.10;;;;;;;25.68;50.90;101601.78;5048435;28;20029;-81
2022/08/23 08:13:07;;;;;;;0.20;0.20;;;;;;;25.79;50.99;101600.16;5051833;28;20052;-81
2022/08/23 08:15:34;;;;;;;0.00;0.00;;;;;;;25.78;49.38;101607.44;5036364;28;20116;-81
2022/08/23 08:18:00;;;;;;;0.88;0.35;;;;;;;25.93;50.33;101610.00;5034523;28;20036;-81
2022/08/23 08:20:27;;;;;;;0.47;0.30;;;;;;;26.01;50.29;101615.72;5038834;28;20051;-81
2022/08/23 08:22:54;;;;;;;0.10;0.10;;;;;;;26.10;49.95;101617.78;5037895;28;20049;-81
2022/08/23 08:25:20;;;;;;;0.10;0.10;;;;;;;26.19;50.33;101618.97;5034332;28;20037;-85
2022/08/23 08:27:47;;;;;;;0.10;0.10;;;;;;;26.27;49.39;101619.25;5038406;28;20116;-84
2022/08/23 08:30:13;;;;;;;0.15;0.15;;;;;;;26.32;49.11;101617.06;5035930;28;20094;-84
2022/08/23 08:32:39;;;;;;;0.17;0.17;;;;;;;26.42;49.34;101614.53;5026790;28;20544;-85
2022/08/23 08:35:06;;;;;;;0.05;0.05;;;;;;;26.47;49.60;101620.47;5035776;28;20044;-85
2022/08/23 08:37:35;;;;;;;0.10;0.10;;;;;;;26.57;49.30;101623.38;5029924;28;20046;-85
2022/08/23 08:40:01;;;;;;;0.10;0.10;;;;;;;26.66;48.87;101624.53;5030873;28;20029;-85
2022/08/23 08:42:51;;;;;;;0.10;0.10;;;;;;;26.87;49.32;101618.47;5031875;28;20112;-84
2022/08/23 08:45:25;;;;;;;0.25;0.25;;;;;;;26.95;48.82;101624.16;5034893;28;20041;-84
2022/08/23 08:48:01;;;;;;;0.10;0.10;;;;;;;27.04;48.74;101623.47;5025382;28;20025;-84
2022/08/23 08:53:16;;;;;;;0.00;0.00;;;;;;;27.32;48.19;101628.59;5113533;27;22135;-78
2022/08/23 08:55:49;;;;;;;0.10;0.10;;;;;;;27.48;47.50;101633.69;5090579;28;20420;-81
2022/08/23 08:58:25;;;;;;;0.10;0.10;;;;;;;27.58;47.55;101634.72;5092037;28;20070;-80
2022/08/23 09:00:51;;;;;;;0.35;0.35;;;;;;;27.70;45.88;101625.56;5091126;28;20055;-79
2022/08/23 09:03:20;;;;;;;0.10;0.10;;;;;;;27.89;47.25;101622.22;5093062;28;20024;-79
2022/08/23 09:05:56;;;;;;;0.43;0.43;;;;;;;28.11;47.09;101625.91;5098470;28;20034;-81
2022/08/23 09:08:48;;;;;;;0.00;0.00;;;;;;;28.37;45.25;101629.19;5091836;28;20040;-79
2022/08/23 09:19:32;;;;;;;0.10;0.10;;;;;;;28.86;45.76;101617.88;5098016;27;20435;-78
2022/08/23 09:22:08;;;;;;;0.10;0.10;;;;;;;28.95;44.68;101614.38;5071833;28;20457;-79
2022/08/23 09:24:34;;;;;;;0.10;0.10;;;;;;;28.97;44.99;101623.28;5072449;28;20042;-79
2022/08/23 09:27:01;;;;;;;0.10;0.10;;;;;;;29.02;45.62;101629.22;5076657;28;20025;-79
2022/08/23 09:29:32;;;;;;;0.10;0.10;;;;;;;29.06;43.56;101621.63;5074791;28;20024;-79
2022/08/23 09:32:03;;;;;;;0.65;0.65;;;;;;;28.98;43.44;101627.72;5073027;28;20025;-78
2022/08/23 09:40:11;;;;;;;0.15;0.15;;;;;;;29.24;43.92;101613.69;5044309;28;20908;-77
2022/08/23 09:42:39;;;;;;;0.10;0.10;;;;;;;29.29;42.37;101621.53;5023959;28;20032;-77
2022/08/23 09:45:26;;;;;;;0.10;0.10;;;;;;;29.38;43.86;101623.44;5023840;28;20517;-75
2022/08/23 09:47:53;;;;;;;0.10;0.10;;;;;;;29.40;43.50;101626.00;5022543;28;20036;-86
2022/08/23 09:53:03;;;;;;;0.00;0.00;;;;;;;29.51;43.28;101634.16;5148042;27;20401;-77
2022/08/23 09:55:34;;;;;;;0.10;0.10;;;;;;;29.54;42.49;101622.94;5139544;27;20083;-77
2022/08/23 09:58:04;;;;;;;0.55;0.55;;;;;;;29.63;43.03;101616.63;5139171;27;20038;-76
2022/08/23 10:00:34;;;;;;;0.00;0.00;;;;;;;29.69;42.15;101620.72;5145222;27;20059;-76
2022/08/23 10:03:24;;;;;;;0.10;0.10;;;;;;;29.89;43.02;101616.22;5147866;27;20027;-76
2022/08/23 10:05:55;;;;;;;0.47;0.47;;;;;;;29.92;42.27;101618.69;5131243;27;20038;-77
2022/08/23 10:08:27;;;;;;;0.10;0.10;;;;;;;30.07;42.74;101613.69;5132217;27;20736;-77
2022/08/23 10:10:57;;;;;;;0.10;0.10;;;;;;;30.17;42.04;101613.72;5136751;27;20384;-77
2022/08/23 10:13:24;;;;;;;0.10;0.10;;;;;;;30.29;41.71;101609.81;5138066;27;20047;-77
2022/08/23 10:16:20;;;;;;;0.63;0.63;;;;;;;30.45;41.82;101605.69;5134700;27;20527;-78
2022/08/23 10:19:19;;;;;;;0.10;0.10;;;;;;;30.46;41.51;101596.47;5133882;27;20042;-77
2022/08/23 10:22:17;;;;;;;0.10;0.10;;;;;;;30.60;41.58;101597.94;5138084;27;20059;-77
2022/08/23 10:24:53;;;;;;;0.00;0.00;;;;;;;30.52;39.87;101589.59;5138027;27;20035;-77
2022/08/23 10:30:19;;;;;;;0.00;0.00;;;;;;;30.37;39.18;101594.56;5094392;27;20384;-75
2022/08/23 10:33:00;;;;;;;0.10;0.10;;;;;;;30.37;39.54;101600.94;5088161;28;20111;-76
2022/08/23 10:38:30;;;;;;;0.55;0.52;;;;;;;30.39;39.79;101600.78;5068806;28;20410;-78
2022/08/23 10:41:36;;;;;;;0.45;0.45;;;;;;;30.47;40.48;101598.22;5060152;28;20025;-77
2022/08/23 10:44:32;;;;;;;0.10;0.10;;;;;;;30.43;39.15;101594.00;5051475;28;20044;-77
2022/08/23 10:47:26;;;;;;;0.43;0.43;;;;;;;30.30;39.36;101591.56;5050824;28;20410;-77
2022/08/23 10:49:54;;;;;;;0.10;0.10;;;;;;;30.15;39.77;101593.84;5064801;28;20131;-77
2022/08/23 10:52:29;;;;;;;0.20;0.20;;;;;;;30.22;39.96;101595.00;5060366;28;20037;-77
2022/08/23 10:55:04;;;;;;;0.20;0.20;;;;;;;30.22;40.28;101600.47;5048317;28;20059;-77
2022/08/23 10:57:35;;;;;;;0.10;0.10;;;;;;;30.42;40.02;101600.47;5051319;28;20025;-77
2022/08/23 11:00:10;;;;;;;0.10;0.10;;;;;;;30.55;41.30;101592.03;5058510;28;20045;-77
2022/08/23 11:03:04;;;;;;;0.35;0.20;;;;;;;30.75;39.83;101587.44;5051158;28;20049;-77
2022/08/23 11:05:34;;;;;;;0.15;0.15;;;;;;;30.87;39.63;101588.13;5054549;28;20039;-78
2022/08/23 11:08:08;;;;;;;0.25;0.25;;;;;;;31.00;39.74;101593.31;5066491;28;20049;-77
2022/08/23 11:16:14;;;;;;;0.20;0.20;;;;;;;31.32;38.25;101592.97;5105262;27;20336;-77
2022/08/23 11:18:47;;;;;;;0.10;0.10;;;;;;;31.35;38.71;101597.28;5087932;28;20549;-77
2022/08/23 11:29:32;;;;;;;0.10;0.10;;;;;;;30.97;38.80;101595.31;5071983;28;20336;-77
2022/08/23 11:32:28;;;;;;;0.52;0.52;;;;;;;31.09;38.38;101597.91;5060739;28;20033;-76
2022/08/23 11:38:07;;;;;;;0.10;0.10;;;;;;;31.20;38.20;101602.34;5042982;28;20397;-77
2022/08/23 11:40:40;;;;;;;0.10;0.10;;;;;;;31.32;37.93;101613.97;5038850;28;20186;-77
2022/08/23 11:43:11;;;;;;;0.20;0.20;;;;;;;31.28;38.28;101608.81;5041039;28;20626;-76
2022/08/23 11:51:27;;;;;;;0.20;0.20;;;;;;;31.03;38.57;101595.72;5094505;27;20754;-77
2022/08/23 11:56:40;;;;;;;0.10;0.10;;;;;;;31.07;37.19;101606.28;5052435;28;20361;-83
2022/08/23 11:59:28;;;;;;;0.47;0.47;;;;;;;31.25;37.69;101602.78;5047797;28;20084;-83
2022/08/23 12:01:55;;;;;;;0.10;0.10;;;;;;;31.18;37.22;101602.50;5051110;28;20021;-84
2022/08/23 12:04:46;;;;;;;0.10;0.10;;;;;;;31.12;37.55;101603.09;5048341;28;20025;-84
2022/08/23 12:07:12;;;;;;;0.05;0.05;;;;;;;31.23;38.51;101602.03;5047909;28;20059;-83
2022/08/23 12:12:28;;;;;;;0.30;0.30;;;;;;;31.72;37.61;101599.16;5090009;27;20396;-76
2022/08/23 12:14:59;;;;;;;0.65;0.65;;;;;;;31.85;36.98;101599.69;5071959;28;20074;-77
2022/08/23 12:25:39;;;;;;;0.10;0.10;;;;;;;32.61;35.12;101597.56;5054153;28;20599;-77
2022/08/23 12:28:30;;;;;;;0.65;0.52;;;;;;;32.77;35.46;101602.38;5058310;28;20033;-76
2022/08/23 12:31:06;;;;;;;0.10;0.10;;;;;;;32.91;35.36;101598.19;5053203;28;20041;-77
2022/08/23 12:34:04;;;;;;;0.10;0.10;;;;;;;32.85;37.41;101604.31;5054760;28;20525;-77
2022/08/23 12:39:35;;;;;;;0.10;0.10;;;;;;;32.63;36.09;101600.19;5098654;27;20385;-77
2022/08/23 12:44:39;;;;;;;0.00;0.00;;;;;;;32.59;35.91;101599.63;5081190;27;20791;-76
2022/08/23 12:47:14;;;;;;;0.43;0.40;;;;;;;32.76;36.55;101600.66;5076029;28;20078;-77
2022/08/23 12:49:41;;;;;;;0.00;0.00;;;;;;;32.88;35.17;101590.28;5072011;28;20025;-77
2022/08/23 12:52:10;;;;;;;0.00;0.00;;;;;;;32.81;34.56;101595.56;5071192;28;20013;-77
2022/08/23 12:54:41;;;;;;;0.10;0.10;;;;;;;32.48;34.82;101602.63;5068515;28;20055;-76